Time;durP1;ratioP1;P1;durP2;ratioP2;P2;SDS_P1;SDS_P2;PMS_P1;PMS_P2;Temp;Humidity;BMP_temperature;BMP_pressure;BME280_temperature;BME280_humidity;BME280_pressure;Samples;Min_cycle;Max_cycle;Signal;HPM_P1;HPM_P2
2022/01/19 00:00:05;;;;;;;16.13;9.50;;;;;;;4.44;62.81;102662.09;682144;28;1502;-85
2022/01/19 00:00:25;;;;;;;16.38;9.43;;;;;;;4.42;62.95;102662.75;684510;28;1552;-84
2022/01/19 00:00:48;;;;;;;17.23;10.15;;;;;;;4.42;62.99;102671.38;682115;29;1270;-85
2022/01/19 00:01:08;;;;;;;17.30;10.13;;;;;;;4.45;63.28;102668.16;684664;28;1276;-85
2022/01/19 00:01:29;;;;;;;17.30;10.20;;;;;;;4.41;62.82;102666.09;687600;28;1107;-85
2022/01/19 00:02:05;;;;;;;17.63;9.82;;;;;;;4.43;63.06;102672.28;679682;28;1192;-85
2022/01/19 00:02:25;;;;;;;17.83;10.15;;;;;;;4.37;62.99;102662.34;681895;29;1604;-85
2022/01/19 00:02:58;;;;;;;20.33;10.48;;;;;;;4.37;63.21;102662.34;681874;29;1630;-84
2022/01/19 00:03:18;;;;;;;19.05;9.98;;;;;;;4.37;63.26;102662.34;679708;28;1764;-85
2022/01/19 00:03:39;;;;;;;18.23;9.52;;;;;;;4.35;62.95;102664.81;679427;29;1751;-85
2022/01/19 00:04:00;;;;;;;15.68;9.70;;;;;;;4.28;63.40;102656.41;679675;29;1307;-85
2022/01/19 00:04:21;;;;;;;17.58;9.98;;;;;;;4.35;63.16;102661.34;676915;29;1357;-85
2022/01/19 00:04:41;;;;;;;18.83;9.95;;;;;;;4.34;63.34;102665.59;675348;29;1336;-85
2022/01/19 00:05:03;;;;;;;18.83;10.03;;;;;;;4.29;63.25;102659.09;685314;28;996;-85
2022/01/19 00:05:24;;;;;;;17.35;9.95;;;;;;;4.26;63.09;102658.84;682063;29;1200;-85
2022/01/19 00:05:45;;;;;;;18.83;10.10;;;;;;;4.26;63.46;102653.69;680712;29;1331;-85
2022/01/19 00:06:05;;;;;;;17.70;9.70;;;;;;;4.24;63.30;102652.66;679420;29;1207;-85
2022/01/19 00:06:26;;;;;;;19.13;10.13;;;;;;;4.24;63.40;102657.84;673318;29;1163;-85
2022/01/19 00:06:46;;;;;;;17.75;10.18;;;;;;;4.24;63.20;102658.72;681630;28;1696;-85
2022/01/19 00:07:07;;;;;;;17.15;9.93;;;;;;;4.23;63.40;102658.63;684318;28;1286;-85
2022/01/19 00:07:27;;;;;;;15.83;9.07;;;;;;;4.28;63.20;102672.81;684611;28;1486;-85
2022/01/19 00:07:48;;;;;;;16.55;9.30;;;;;;;4.21;63.39;102671.38;677334;29;1082;-85
2022/01/19 00:08:10;;;;;;;17.48;9.70;;;;;;;4.11;63.54;102654.16;675554;29;1435;-84
2022/01/19 00:08:31;;;;;;;17.55;10.05;;;;;;;4.16;63.13;102661.41;680584;29;1616;-85
2022/01/19 00:08:52;;;;;;;15.88;9.60;;;;;;;4.11;63.61;102661.91;679593;29;1636;-85
2022/01/19 00:09:13;;;;;;;15.63;9.23;;;;;;;4.11;63.44;102659.34;677500;29;1533;-84
2022/01/19 00:09:33;;;;;;;15.85;9.25;;;;;;;4.14;63.58;102668.13;678925;29;1153;-85
2022/01/19 00:09:54;;;;;;;17.27;9.77;;;;;;;4.08;63.47;102656.50;677016;29;1814;-85
2022/01/19 00:10:19;;;;;;;16.70;9.73;;;;;;;4.14;63.05;102662.94;682164;29;1287;-85
2022/01/19 00:10:40;;;;;;;16.25;9.65;;;;;;;4.15;63.50;102669.91;682219;29;1342;-85
2022/01/19 00:11:01;;;;;;;16.15;9.80;;;;;;;4.13;63.48;102666.31;679354;29;1429;-85
2022/01/19 00:11:22;;;;;;;18.10;9.88;;;;;;;4.07;63.52;102657.28;678590;29;1545;-85
2022/01/19 00:11:42;;;;;;;18.83;9.23;;;;;;;4.08;63.48;102663.34;679724;29;1212;-85
2022/01/19 00:12:03;;;;;;;18.60;9.00;;;;;;;4.07;63.58;102671.88;677338;29;1093;-85
2022/01/19 00:12:24;;;;;;;18.15;9.07;;;;;;;4.00;63.57;102660.13;677112;29;1150;-84
2022/01/19 00:12:45;;;;;;;18.13;9.40;;;;;;;4.06;63.46;102670.94;678619;29;1220;-85
2022/01/19 00:13:08;;;;;;;17.90;9.40;;;;;;;3.94;63.78;102652.72;685158;28;1136;-85
2022/01/19 00:13:29;;;;;;;18.25;9.50;;;;;;;3.96;63.89;102661.53;682273;28;1198;-85
2022/01/19 00:13:50;;;;;;;17.00;9.43;;;;;;;3.99;63.78;102658.31;676638;29;1474;-85
2022/01/19 00:14:11;;;;;;;19.30;9.80;;;;;;;4.03;63.46;102660.34;674321;29;1220;-84
2022/01/19 00:14:31;;;;;;;18.98;9.60;;;;;;;4.03;63.83;102659.44;677327;29;1042;-85
2022/01/19 00:15:06;;;;;;;20.50;9.90;;;;;;;4.06;63.85;102660.59;678666;29;824;-85
2022/01/19 00:15:28;;;;;;;19.67;9.50;;;;;;;4.06;63.33;102658.03;678513;29;1477;-85
2022/01/19 00:16:05;;;;;;;20.10;9.32;;;;;;;4.06;63.57;102670.06;684211;28;1175;-85
2022/01/19 00:16:26;;;;;;;18.08;9.95;;;;;;;4.02;63.81;102657.63;679227;29;1521;-84
2022/01/19 00:16:47;;;;;;;18.27;10.25;;;;;;;4.05;63.40;102657.91;683872;28;1815;-85
2022/01/19 00:17:07;;;;;;;20.00;10.40;;;;;;;4.04;63.42;102661.28;679355;29;1458;-85
2022/01/19 00:17:28;;;;;;;19.60;10.23;;;;;;;3.98;63.34;102651.31;682303;29;1465;-85
2022/01/19 00:17:54;;;;;;;20.58;9.75;;;;;;;4.00;63.68;102660.13;682051;28;1447;-85
2022/01/19 00:18:18;;;;;;;18.63;9.70;;;;;;;4.02;63.22;102676.66;681338;28;1298;-85
2022/01/19 00:18:39;;;;;;;17.40;9.93;;;;;;;3.97;63.45;102658.16;678397;29;1383;-85
2022/01/19 00:18:59;;;;;;;19.33;10.00;;;;;;;3.93;63.32;102648.31;674475;29;1950;-85
2022/01/19 00:19:20;;;;;;;19.85;9.65;;;;;;;4.02;63.25;102648.22;679277;29;1436;-85
2022/01/19 00:19:40;;;;;;;19.67;10.30;;;;;;;4.06;63.45;102660.59;678821;29;1589;-85
2022/01/19 00:20:01;;;;;;;19.00;10.00;;;;;;;4.14;63.21;102652.59;678989;28;1304;-85
2022/01/19 00:20:22;;;;;;;19.35;10.38;;;;;;;4.25;62.69;102662.22;681670;28;1271;-85
2022/01/19 00:20:43;;;;;;;16.83;9.90;;;;;;;4.19;63.04;102662.59;679621;29;1370;-85
2022/01/19 00:21:04;;;;;;;16.83;10.20;;;;;;;4.17;62.81;102647.72;682258;28;1170;-85
2022/01/19 00:21:25;;;;;;;17.40;10.05;;;;;;;4.15;62.72;102654.41;684992;28;1333;-85
2022/01/19 00:21:45;;;;;;;18.65;10.02;;;;;;;4.11;62.87;102645.53;679570;29;1287;-85
2022/01/19 00:22:06;;;;;;;20.98;10.45;;;;;;;4.25;62.95;102662.22;682455;29;1017;-85
2022/01/19 00:22:27;;;;;;;20.53;10.43;;;;;;;4.23;62.33;102651.75;680199;29;1557;-85
2022/01/19 00:22:49;;;;;;;20.25;10.45;;;;;;;4.27;62.37;102659.75;677602;29;1427;-84
2022/01/19 00:23:11;;;;;;;18.58;10.05;;;;;;;4.21;62.43;102644.59;681563;28;1323;-84
2022/01/19 00:23:32;;;;;;;18.48;10.15;;;;;;;4.14;62.72;102650.03;684313;28;1350;-85
2022/01/19 00:23:52;;;;;;;18.90;10.20;;;;;;;4.04;62.93;102650.94;679199;29;1344;-85
2022/01/19 00:24:18;;;;;;;16.27;9.65;;;;;;;4.00;63.09;102642.03;682362;29;1362;-85
2022/01/19 00:24:40;;;;;;;16.80;9.48;;;;;;;3.98;63.01;102638.38;682437;28;1445;-85
2022/01/19 00:25:00;;;;;;;18.20;9.60;;;;;;;4.03;62.74;102652.63;681752;29;1156;-85
2022/01/19 00:25:21;;;;;;;19.87;10.10;;;;;;;3.97;62.82;102649.50;682286;29;1214;-85
2022/01/19 00:25:43;;;;;;;20.20;10.60;;;;;;;3.91;62.89;102639.56;679815;29;1291;-85
2022/01/19 00:26:04;;;;;;;18.60;10.68;;;;;;;3.87;62.90;102644.31;679435;29;1211;-85
2022/01/19 00:26:25;;;;;;;18.48;10.50;;;;;;;3.79;63.04;102622.97;683147;28;1226;-85
2022/01/19 00:26:47;;;;;;;16.90;9.93;;;;;;;3.85;63.15;102639.03;679807;29;1384;-85
2022/01/19 00:27:07;;;;;;;16.30;9.55;;;;;;;3.88;63.41;102646.13;674600;29;1124;-85
2022/01/19 00:27:28;;;;;;;17.08;10.23;;;;;;;3.82;63.50;102629.31;676914;29;1303;-85
2022/01/19 00:27:49;;;;;;;18.50;10.63;;;;;;;3.76;63.41;102623.66;679409;29;1530;-85
2022/01/19 00:28:10;;;;;;;18.70;11.00;;;;;;;3.75;63.62;102619.28;679593;29;1406;-85
2022/01/19 00:28:31;;;;;;;17.95;10.32;;;;;;;3.78;63.61;102618.59;677260;29;1420;-84
2022/01/19 00:28:52;;;;;;;19.17;10.57;;;;;;;3.79;63.43;102618.75;675875;29;1166;-85
2022/01/19 00:29:12;;;;;;;18.75;10.23;;;;;;;3.81;63.55;102626.63;677623;29;1730;-85
2022/01/19 00:29:33;;;;;;;18.08;10.60;;;;;;;3.76;63.75;102613.31;678243;29;1427;-84
2022/01/19 00:29:54;;;;;;;17.20;10.30;;;;;;;3.74;63.57;102606.22;676998;29;1200;-85
2022/01/19 00:30:15;;;;;;;18.47;10.70;;;;;;;3.73;63.42;102605.28;684821;28;1170;-85
2022/01/19 00:30:35;;;;;;;16.08;9.70;;;;;;;3.74;63.80;102598.47;685246;28;1333;-85
2022/01/19 00:30:56;;;;;;;15.80;9.55;;;;;;;3.83;63.26;102605.34;677122;29;1457;-84
2022/01/19 00:31:17;;;;;;;15.00;9.38;;;;;;;3.86;63.42;102603.78;674030;29;1487;-84
2022/01/19 00:31:37;;;;;;;16.57;9.87;;;;;;;3.78;63.37;102593.69;677241;29;1224;-85
2022/01/19 00:31:58;;;;;;;15.68;9.63;;;;;;;3.92;63.25;102606.88;681280;28;1788;-85
2022/01/19 00:32:20;;;;;;;17.63;9.77;;;;;;;3.85;62.99;102586.47;682135;28;1314;-85
2022/01/19 00:32:41;;;;;;;17.30;9.82;;;;;;;3.84;62.98;102585.56;679864;29;1872;-84
2022/01/19 00:33:02;;;;;;;16.88;10.35;;;;;;;3.85;63.27;102586.47;679014;29;1259;-84
2022/01/19 00:33:24;;;;;;;16.05;10.40;;;;;;;3.94;62.87;102597.59;684637;28;1298;-85
2022/01/19 00:33:44;;;;;;;18.83;10.77;;;;;;;3.87;62.70;102580.66;684477;28;1409;-85
2022/01/19 00:34:05;;;;;;;19.63;10.53;;;;;;;3.79;63.31;102585.16;675815;29;1109;-85
2022/01/19 00:34:25;;;;;;;20.17;10.32;;;;;;;3.87;63.29;102580.66;683966;28;1175;-85
2022/01/19 00:34:46;;;;;;;19.77;10.10;;;;;;;3.86;63.27;102577.94;684652;28;1428;-85
2022/01/19 00:35:09;;;;;;;19.87;10.63;;;;;;;3.93;63.11;102588.91;681066;29;1342;-85
2022/01/19 00:35:29;;;;;;;18.73;10.40;;;;;;;3.90;63.14;102580.00;677009;29;1246;-85
2022/01/19 00:35:51;;;;;;;19.95;10.95;;;;;;;3.84;63.39;102580.38;685124;28;1313;-85
2022/01/19 00:36:12;;;;;;;20.95;10.70;;;;;;;3.74;63.35;102568.34;681847;29;1381;-85
2022/01/19 00:36:51;;;;;;;22.07;11.20;;;;;;;3.77;63.57;102573.81;679685;29;1432;-85
2022/01/19 00:37:11;;;;;;;21.83;11.10;;;;;;;3.73;63.38;102565.66;676449;29;1616;-85
2022/01/19 00:37:32;;;;;;;22.60;10.27;;;;;;;3.79;63.50;102576.50;676679;29;1739;-85
2022/01/19 00:37:53;;;;;;;22.63;10.60;;;;;;;3.78;63.32;102578.19;679449;29;1033;-85
2022/01/19 00:38:14;;;;;;;22.83;10.10;;;;;;;3.74;63.63;102576.09;676126;29;1235;-85
2022/01/19 00:38:35;;;;;;;23.35;10.50;;;;;;;3.75;63.41;102570.19;677096;29;1224;-85
2022/01/19 00:38:55;;;;;;;23.33;10.65;;;;;;;3.80;63.72;102581.81;676428;29;1899;-84
2022/01/19 00:39:16;;;;;;;20.77;10.85;;;;;;;3.75;63.76;102572.78;678455;29;1299;-85
2022/01/19 00:39:36;;;;;;;18.73;10.23;;;;;;;3.75;63.88;102570.19;679442;29;1449;-85
2022/01/19 00:39:57;;;;;;;18.83;9.90;;;;;;;3.77;63.38;102572.88;679235;29;1284;-85
2022/01/19 00:40:17;;;;;;;20.75;9.73;;;;;;;3.81;63.33;102581.03;677625;29;1638;-85
2022/01/19 00:40:39;;;;;;;20.83;10.10;;;;;;;3.70;63.64;102569.78;683223;28;1179;-85
2022/01/19 00:41:01;;;;;;;20.95;10.73;;;;;;;3.76;63.54;102566.84;675857;29;1404;-84
2022/01/19 00:41:21;;;;;;;21.02;10.60;;;;;;;3.72;63.29;102569.91;678858;29;1434;-84
2022/01/19 00:41:42;;;;;;;20.05;10.65;;;;;;;3.80;63.47;102583.50;683479;28;1144;-85
2022/01/19 00:42:03;;;;;;;19.40;10.00;;;;;;;3.78;63.78;102578.19;684621;28;1183;-85
2022/01/19 00:42:23;;;;;;;19.60;10.40;;;;;;;3.77;63.60;102573.81;684520;28;1360;-85
2022/01/19 00:42:45;;;;;;;20.70;10.45;;;;;;;3.83;63.59;102582.09;678644;29;1595;-85
2022/01/19 00:43:06;;;;;;;18.27;10.20;;;;;;;3.80;63.51;102575.75;682004;29;1343;-84
2022/01/19 00:43:27;;;;;;;19.42;10.35;;;;;;;3.79;63.59;102584.25;676919;29;1140;-85
2022/01/19 00:43:48;;;;;;;19.30;10.63;;;;;;;3.76;63.13;102566.84;676831;29;1304;-84
2022/01/19 00:44:08;;;;;;;20.00;10.40;;;;;;;3.85;63.32;102576.13;674036;29;1481;-85
2022/01/19 00:44:29;;;;;;;18.02;10.30;;;;;;;3.87;63.49;102585.84;678880;29;1462;-85
2022/01/19 00:44:49;;;;;;;20.13;10.38;;;;;;;3.85;63.07;102573.56;681090;29;1983;-85
2022/01/19 00:45:12;;;;;;;19.73;10.30;;;;;;;3.85;62.93;102583.88;683156;28;1573;-84
2022/01/19 00:45:37;;;;;;;20.73;10.05;;;;;;;3.79;62.95;102581.66;681805;29;1179;-85
2022/01/19 00:45:58;;;;;;;21.20;10.18;;;;;;;3.79;63.29;102582.59;676764;29;1141;-84
2022/01/19 00:46:19;;;;;;;20.77;10.77;;;;;;;3.85;63.13;102592.53;680797;29;1374;-85
2022/01/19 00:46:39;;;;;;;18.65;10.45;;;;;;;3.79;63.05;102590.34;679278;29;1424;-85
2022/01/19 00:47:00;;;;;;;18.67;10.57;;;;;;;3.79;62.96;102587.75;671782;29;1411;-85
2022/01/19 00:47:21;;;;;;;20.75;10.75;;;;;;;3.83;62.87;102595.00;677567;29;1228;-85
2022/01/19 00:47:42;;;;;;;22.47;11.40;;;;;;;3.83;62.89;102597.59;676918;29;1388;-85
2022/01/19 00:48:03;;;;;;;21.10;11.30;;;;;;;3.76;62.72;102584.91;677464;29;1466;-85
2022/01/19 00:48:23;;;;;;;20.43;11.17;;;;;;;3.81;63.06;102590.47;679216;29;1339;-85
2022/01/19 00:48:44;;;;;;;18.23;10.63;;;;;;;3.83;62.92;102591.50;682088;29;1178;-84
2022/01/19 00:49:04;;;;;;;19.02;10.70;;;;;;;3.81;62.78;102588.78;679574;29;1247;-85
2022/01/19 00:49:25;;;;;;;20.58;10.55;;;;;;;3.80;62.99;102581.81;683689;28;1570;-85
2022/01/19 00:49:46;;;;;;;19.93;10.43;;;;;;;3.76;62.88;102581.41;678948;29;1421;-84
2022/01/19 00:50:09;;;;;;;20.05;10.20;;;;;;;3.78;63.05;102583.38;684767;28;1345;-85
2022/01/19 00:50:30;;;;;;;18.02;10.23;;;;;;;3.83;62.76;102597.59;677182;29;1345;-85
2022/01/19 00:50:51;;;;;;;18.33;9.90;;;;;;;3.67;62.69;102582.44;681650;29;1282;-85
2022/01/19 00:51:12;;;;;;;18.37;10.20;;;;;;;3.67;62.88;102581.53;679304;29;1413;-85
2022/01/19 00:51:32;;;;;;;19.15;10.00;;;;;;;3.68;62.99;102584.25;679147;29;1505;-85
2022/01/19 00:51:53;;;;;;;20.85;10.80;;;;;;;3.73;62.97;102591.50;679663;29;1350;-85
2022/01/19 00:52:14;;;;;;;22.43;11.03;;;;;;;3.69;62.95;102595.50;676752;29;1529;-85
2022/01/19 00:52:35;;;;;;;24.83;11.35;;;;;;;3.65;63.17;102585.66;676714;29;1483;-85
2022/01/19 00:52:57;;;;;;;23.56;11.16;;;;;;;3.67;63.13;102589.28;682788;28;1378;-85
2022/01/19 00:53:18;;;;;;;21.55;10.43;;;;;;;3.63;62.94;102589.78;679724;29;1231;-84
2022/01/19 00:53:44;;;;;;;17.67;10.48;;;;;;;3.62;63.44;102593.16;676779;29;1403;-85
2022/01/19 00:54:05;;;;;;;21.30;11.60;;;;;;;3.63;63.04;102603.63;674221;29;1216;-85
2022/01/19 00:54:26;;;;;;;21.63;11.60;;;;;;;3.62;63.21;102604.38;676780;29;1324;-85
2022/01/19 00:54:47;;;;;;;21.63;11.43;;;;;;;3.63;63.57;102605.28;684853;28;1280;-85
2022/01/19 00:55:10;;;;;;;21.20;10.80;;;;;;;3.62;63.17;102603.47;681338;29;1369;-84
2022/01/19 00:55:31;;;;;;;23.55;10.88;;;;;;;3.53;63.45;102596.75;676437;29;1434;-85
2022/01/19 00:55:52;;;;;;;22.00;10.60;;;;;;;3.55;63.32;102602.03;672232;29;1322;-85
2022/01/19 00:56:13;;;;;;;20.38;10.10;;;;;;;3.54;63.41;102598.56;678336;29;1303;-85
2022/01/19 00:56:34;;;;;;;20.52;10.18;;;;;;;3.53;63.07;102603.59;682155;28;1302;-85
2022/01/19 00:56:55;;;;;;;20.73;9.90;;;;;;;3.58;63.17;102603.97;681062;29;1346;-85
2022/01/19 00:57:16;;;;;;;17.00;9.57;;;;;;;3.55;63.58;102597.78;682018;29;1486;-85
2022/01/19 00:57:37;;;;;;;16.73;9.43;;;;;;;3.56;63.20;102596.13;679189;29;1453;-84
2022/01/19 00:57:58;;;;;;;18.88;9.80;;;;;;;3.53;63.24;102589.00;676257;29;1427;-85
2022/01/19 00:58:19;;;;;;;19.70;10.00;;;;;;;3.59;62.82;102583.47;681964;28;1207;-85
2022/01/19 00:58:41;;;;;;;17.98;10.15;;;;;;;3.62;62.80;102593.16;684146;28;1259;-84
2022/01/19 00:59:02;;;;;;;20.43;10.20;;;;;;;3.70;62.90;102597.28;687131;28;1902;-85
2022/01/19 00:59:23;;;;;;;22.75;10.77;;;;;;;3.64;62.76;102586.44;681691;29;1275;-85
2022/01/19 00:59:44;;;;;;;25.42;10.60;;;;;;;3.65;63.32;102589.16;678969;29;1209;-85
2022/01/19 01:00:07;;;;;;;22.20;10.60;;;;;;;3.66;63.19;102584.88;681570;29;1481;-84
2022/01/19 01:00:46;;;;;;;20.42;10.68;;;;;;;3.60;63.33;102577.53;684515;28;1500;-85
2022/01/19 01:01:07;;;;;;;19.95;10.70;;;;;;;3.61;63.48;102586.19;684197;28;1656;-85
2022/01/19 01:01:28;;;;;;;20.67;10.57;;;;;;;3.51;63.08;102580.25;676500;29;1303;-84
2022/01/19 01:01:48;;;;;;;20.80;10.50;;;;;;;3.56;63.38;102580.63;682045;29;1497;-85
2022/01/19 01:02:09;;;;;;;19.50;10.40;;;;;;;3.59;63.42;102587.72;684590;28;1567;-85
2022/01/19 01:02:31;;;;;;;18.88;10.68;;;;;;;3.55;63.26;102579.72;684671;28;1265;-84
2022/01/19 01:02:53;;;;;;;22.20;11.20;;;;;;;3.61;63.46;102586.19;683794;28;1436;-84
2022/01/19 01:03:14;;;;;;;24.35;11.20;;;;;;;3.60;63.19;102589.53;678927;29;1419;-85
2022/01/19 01:03:36;;;;;;;23.50;11.18;;;;;;;3.59;63.10;102585.13;682158;28;1391;-85
2022/01/19 01:03:57;;;;;;;20.92;10.70;;;;;;;3.53;63.59;102578.69;684735;28;1404;-84
2022/01/19 01:04:18;;;;;;;19.00;9.80;;;;;;;3.47;63.31;102572.06;684800;28;1203;-85
2022/01/19 01:04:39;;;;;;;19.40;9.85;;;;;;;3.55;63.34;102592.63;678431;28;1493;-85
2022/01/19 01:04:59;;;;;;;17.08;10.02;;;;;;;3.49;63.28;102586.91;679707;29;1513;-84
2022/01/19 01:05:22;;;;;;;16.40;9.90;;;;;;;3.49;62.99;102581.75;681990;28;1350;-85
2022/01/19 01:05:44;;;;;;;17.70;9.73;;;;;;;3.43;63.09;102581.22;680486;28;1850;-85
2022/01/19 01:06:05;;;;;;;18.23;10.02;;;;;;;3.49;62.91;102591.19;680431;28;1235;-87
2022/01/19 01:06:25;;;;;;;19.87;10.77;;;;;;;3.45;63.02;102574.53;682246;28;1504;-87
2022/01/19 01:06:46;;;;;;;22.02;11.50;;;;;;;3.43;63.14;102576.06;685954;28;1381;-87
2022/01/19 01:07:06;;;;;;;20.15;11.13;;;;;;;3.39;63.25;102574.00;684414;28;1416;-84
2022/01/19 01:07:27;;;;;;;20.43;11.30;;;;;;;3.40;63.09;102587.06;682092;29;1331;-87
2022/01/19 01:07:48;;;;;;;17.75;10.48;;;;;;;3.36;63.03;102569.47;679497;29;1273;-85
2022/01/19 01:08:09;;;;;;;21.27;10.73;;;;;;;3.37;63.22;102571.28;679432;29;1342;-85
2022/01/19 01:08:30;;;;;;;20.63;10.75;;;;;;;3.34;62.96;102578.78;676209;29;1244;-85
2022/01/19 01:08:50;;;;;;;21.33;11.35;;;;;;;3.32;63.29;102574.25;681737;29;1174;-86
2022/01/19 01:09:11;;;;;;;18.83;11.00;;;;;;;3.35;63.11;102580.56;682060;28;1410;-85
2022/01/19 01:09:32;;;;;;;18.10;11.00;;;;;;;3.31;63.03;102578.47;673868;29;1504;-85
2022/01/19 01:09:53;;;;;;;19.08;10.80;;;;;;;3.30;63.36;102566.34;675694;29;1184;-86
2022/01/19 01:10:16;;;;;;;18.17;10.40;;;;;;;3.35;63.08;102577.06;682046;28;1433;-85
2022/01/19 01:10:43;;;;;;;17.80;10.10;;;;;;;3.25;63.04;102565.06;682033;28;1078;-86
2022/01/19 01:11:04;;;;;;;15.45;9.50;;;;;;;3.22;63.22;102563.13;679404;29;1337;-87
2022/01/19 01:11:32;;;;;;;15.80;9.68;;;;;;;3.25;63.09;102576.28;682161;29;1249;-86
2022/01/19 01:12:11;;;;;;;17.85;10.10;;;;;;;3.21;63.34;102563.91;678971;29;1280;-87
2022/01/19 01:12:50;;;;;;;21.75;11.00;;;;;;;3.20;63.46;102556.94;679404;29;1270;-87
2022/01/19 01:15:26;;;;;;;18.85;9.82;;;;;;;3.17;63.33;102559.22;682583;28;1231;-87
2022/01/19 01:15:48;;;;;;;18.80;9.98;;;;;;;3.10;63.35;102552.63;679464;29;1064;-87
2022/01/19 01:16:18;;;;;;;22.85;10.93;;;;;;;3.11;63.65;102553.53;686265;28;1132;-86
2022/01/19 01:17:12;;;;;;;19.63;9.65;;;;;;;3.08;63.48;102553.28;685034;28;1191;-86
2022/01/19 01:18:18;;;;;;;17.38;10.00;;;;;;;3.12;63.58;102548.50;682130;29;1168;-86
2022/01/19 01:18:39;;;;;;;16.00;9.85;;;;;;;3.14;63.28;102566.72;679605;29;1103;-86
2022/01/19 01:19:01;;;;;;;19.88;10.30;;;;;;;3.08;63.57;102558.44;681584;28;1895;-86
2022/01/19 01:19:22;;;;;;;19.80;10.40;;;;;;;3.07;63.47;102551.47;678876;28;1840;-87
2022/01/19 01:19:43;;;;;;;21.13;10.02;;;;;;;3.09;63.18;102550.84;678622;29;1264;-86
2022/01/19 01:20:06;;;;;;;19.33;9.70;;;;;;;3.08;63.34;102551.59;673501;29;1416;-87
2022/01/19 01:20:27;;;;;;;18.70;9.35;;;;;;;3.10;63.62;102562.97;679121;29;1307;-86
2022/01/19 01:20:51;;;;;;;18.27;9.80;;;;;;;3.13;63.59;102557.16;676782;29;1407;-86
2022/01/19 01:21:12;;;;;;;17.95;9.95;;;;;;;3.12;63.28;102548.50;679918;28;1438;-86
2022/01/19 01:21:34;;;;;;;17.55;9.68;;;;;;;3.17;63.41;102559.22;683533;28;1245;-87
2022/01/19 01:21:55;;;;;;;16.35;9.52;;;;;;;3.07;62.96;102533.41;676933;29;1174;-87
2022/01/19 01:22:15;;;;;;;17.03;9.90;;;;;;;3.12;63.05;102543.34;676534;29;1228;-86
2022/01/19 01:22:37;;;;;;;17.43;9.90;;;;;;;3.12;63.18;102547.63;679466;29;1532;-86
2022/01/19 01:22:58;;;;;;;17.27;10.43;;;;;;;3.06;63.63;102544.50;679799;29;1350;-86
2022/01/19 01:23:22;;;;;;;16.25;9.80;;;;;;;3.09;63.11;102558.56;677226;29;1284;-87
2022/01/19 01:23:44;;;;;;;18.63;10.10;;;;;;;3.08;63.24;102542.94;684325;28;1405;-87
2022/01/19 01:24:05;;;;;;;18.33;9.70;;;;;;;3.04;63.25;102533.13;686770;28;1666;-87
2022/01/19 01:24:35;;;;;;;19.60;9.60;;;;;;;3.12;63.13;102547.63;687115;28;1492;-86
2022/01/19 01:24:55;;;;;;;21.15;9.95;;;;;;;3.09;63.25;102547.34;676969;29;1151;-86
2022/01/19 01:25:16;;;;;;;21.17;10.50;;;;;;;3.07;63.09;102534.28;676485;29;1316;-86
2022/01/19 01:25:38;;;;;;;21.08;10.50;;;;;;;3.05;63.43;102534.97;676786;29;2516;-87
2022/01/19 01:25:58;;;;;;;17.38;10.20;;;;;;;3.03;63.29;102536.47;682501;28;1156;-87
2022/01/19 01:26:19;;;;;;;17.40;10.47;;;;;;;3.05;63.26;102543.59;681917;28;1269;-86
2022/01/19 01:26:40;;;;;;;17.67;10.40;;;;;;;3.05;63.27;102538.41;679812;29;1402;-87
2022/01/19 01:27:00;;;;;;;19.75;10.48;;;;;;;3.11;63.22;102546.69;682153;29;1311;-87
2022/01/19 01:27:21;;;;;;;19.48;9.80;;;;;;;3.02;62.92;102530.44;679469;29;1192;-87
2022/01/19 01:27:42;;;;;;;20.23;9.87;;;;;;;3.05;63.10;102529.78;680219;29;1450;-87
2022/01/19 01:28:06;;;;;;;20.05;9.70;;;;;;;3.00;63.01;102525.13;683921;28;1092;-87
2022/01/19 01:28:27;;;;;;;22.88;10.23;;;;;;;3.04;63.06;102540.84;674472;29;1181;-87
2022/01/19 01:28:48;;;;;;;20.77;9.60;;;;;;;3.06;63.21;102541.91;681801;28;1480;-87
2022/01/19 01:29:08;;;;;;;19.27;9.40;;;;;;;3.03;63.39;102531.31;683940;28;1187;-87
2022/01/19 01:29:29;;;;;;;16.98;8.88;;;;;;;3.05;63.29;102546.16;675221;28;1766;-87
2022/01/19 01:29:49;;;;;;;17.65;9.30;;;;;;;2.98;63.67;102533.50;678899;29;1338;-87
2022/01/19 01:30:10;;;;;;;19.80;9.80;;;;;;;2.99;63.79;102536.22;681889;29;1282;-86
2022/01/19 01:30:31;;;;;;;20.13;10.45;;;;;;;3.03;63.57;102547.72;678159;29;1367;-87
2022/01/19 01:30:52;;;;;;;19.40;10.40;;;;;;;3.06;63.36;102536.75;682039;28;1445;-86
2022/01/19 01:31:13;;;;;;;18.40;10.52;;;;;;;2.97;63.03;102517.13;683077;28;1525;-87
2022/01/19 01:31:34;;;;;;;17.40;10.43;;;;;;;3.01;63.21;102524.34;680726;28;1144;-87
2022/01/19 01:31:54;;;;;;;18.25;10.40;;;;;;;2.99;63.12;102523.31;676855;29;1192;-87
2022/01/19 01:32:15;;;;;;;20.55;10.35;;;;;;;3.07;63.44;102535.97;682242;28;1310;-87
2022/01/19 01:32:36;;;;;;;22.17;10.80;;;;;;;2.98;63.30;102520.59;682250;28;1220;-86
2022/01/19 01:32:57;;;;;;;23.53;11.00;;;;;;;3.07;63.66;102530.81;682053;29;1947;-86
2022/01/19 01:33:18;;;;;;;19.70;10.57;;;;;;;3.00;63.60;102521.66;680463;28;1549;-87
2022/01/19 01:33:40;;;;;;;20.60;10.27;;;;;;;2.98;63.59;102512.84;680270;29;1319;-87
2022/01/19 01:34:01;;;;;;;18.65;10.50;;;;;;;3.06;63.49;102521.28;679096;29;1521;-87
2022/01/19 01:34:24;;;;;;;21.73;10.95;;;;;;;3.03;63.27;102510.69;678635;28;1735;-87
2022/01/19 01:34:44;;;;;;;20.98;11.15;;;;;;;3.00;63.32;102501.91;684687;28;1298;-87
2022/01/19 01:35:06;;;;;;;19.85;10.85;;;;;;;2.99;63.08;102499.19;681582;28;1330;-87
2022/01/19 01:35:26;;;;;;;20.42;10.68;;;;;;;3.02;63.09;102504.63;674175;29;1510;-86
2022/01/19 01:35:50;;;;;;;22.60;10.63;;;;;;;2.96;63.13;102489.53;682137;29;1378;-86
2022/01/19 01:36:16;;;;;;;20.30;10.13;;;;;;;2.96;63.27;102499.84;677601;29;1305;-86
2022/01/19 01:36:36;;;;;;;19.47;9.80;;;;;;;2.98;63.32;102498.31;682101;29;1337;-86
2022/01/19 01:36:57;;;;;;;19.17;9.40;;;;;;;2.95;63.20;102491.97;676925;29;1265;-87
2022/01/19 01:37:19;;;;;;;23.83;10.20;;;;;;;2.93;62.96;102489.25;682158;28;1461;-86
2022/01/19 01:37:40;;;;;;;25.13;10.57;;;;;;;2.98;63.14;102498.31;679230;29;1397;-86
2022/01/19 01:38:02;;;;;;;23.73;10.45;;;;;;;2.95;63.41;102498.00;673904;29;1356;-86
2022/01/19 01:38:23;;;;;;;20.98;9.93;;;;;;;2.87;63.27;102478.38;682509;28;1389;-87
2022/01/19 01:38:43;;;;;;;21.00;9.98;;;;;;;2.91;63.16;102490.78;679527;29;1354;-87
2022/01/19 01:39:04;;;;;;;20.10;10.10;;;;;;;2.91;63.44;102490.78;681813;28;1922;-86
2022/01/19 01:39:25;;;;;;;20.50;10.20;;;;;;;2.92;62.81;102492.59;678715;29;1378;-87
2022/01/19 01:39:46;;;;;;;19.70;10.35;;;;;;;2.87;63.39;102473.22;679027;28;1168;-87
2022/01/19 01:40:09;;;;;;;16.95;9.45;;;;;;;2.94;63.05;102490.16;682032;29;1361;-87
2022/01/19 01:40:33;;;;;;;18.10;9.48;;;;;;;2.90;63.28;102480.34;681583;28;1526;-87
2022/01/19 01:40:54;;;;;;;16.75;9.45;;;;;;;2.89;63.15;102479.44;681313;29;1303;-86
2022/01/19 01:41:15;;;;;;;19.20;10.40;;;;;;;2.87;63.33;102469.00;680375;29;1173;-87
2022/01/19 01:41:42;;;;;;;19.23;10.30;;;;;;;2.95;63.13;102472.22;679281;29;1272;-87
2022/01/19 01:42:14;;;;;;;20.38;9.90;;;;;;;2.97;63.09;102470.69;681335;29;1140;-87
2022/01/19 01:42:35;;;;;;;21.08;9.65;;;;;;;2.89;63.06;102451.09;677147;29;1276;-87
2022/01/19 01:42:56;;;;;;;21.73;9.82;;;;;;;2.94;63.26;102459.22;678786;29;1319;-86
2022/01/19 01:43:17;;;;;;;22.38;10.48;;;;;;;2.97;63.06;102460.38;679406;29;1347;-86
2022/01/19 01:43:38;;;;;;;21.70;10.70;;;;;;;2.90;63.05;102447.72;683231;28;1322;-86
2022/01/19 01:43:59;;;;;;;21.08;10.75;;;;;;;2.90;63.38;102447.72;677466;28;1362;-86
2022/01/19 01:44:20;;;;;;;18.23;10.48;;;;;;;2.94;63.41;102447.19;679488;29;1464;-86
2022/01/19 01:44:44;;;;;;;19.20;9.88;;;;;;;2.98;63.33;102453.53;676247;29;1856;-86
2022/01/19 01:45:10;;;;;;;19.73;10.07;;;;;;;2.96;63.12;102445.69;682828;28;1338;-87
2022/01/19 01:45:33;;;;;;;18.88;10.45;;;;;;;2.97;62.94;102444.91;684845;28;1173;-86
2022/01/19 01:46:01;;;;;;;17.77;10.98;;;;;;;2.91;62.94;102434.06;682798;28;1425;-86
2022/01/19 01:46:41;;;;;;;17.77;10.45;;;;;;;2.93;63.14;102439.34;679665;28;1477;-87
2022/01/19 01:47:03;;;;;;;18.50;9.48;;;;;;;2.89;63.04;102430.44;681975;29;1209;-87